sensor_id;sensor_type;location;lat;lon;timestamp;P1;durP1;ratioP1;P2;durP2;ratioP2
37288;SDS011;23174;49.462;11.000;2022-07-29T00:01:03;4.72;;;2.30;;
37288;SDS011;23174;49.462;11.000;2022-07-29T00:03:04;2.72;;;2.10;;
37288;SDS011;23174;49.462;11.000;2022-07-29T00:05:05;2.13;;;1.92;;
37288;SDS011;23174;49.462;11.000;2022-07-29T00:07:06;2.65;;;2.10;;
37288;SDS011;23174;49.462;11.000;2022-07-29T00:09:06;3.97;;;2.03;;
37288;SDS011;23174;49.462;11.000;2022-07-29T00:11:07;3.05;;;2.28;;
37288;SDS011;23174;49.462;11.000;2022-07-29T00:13:07;6.53;;;2.17;;
37288;SDS011;23174;49.462;11.000;2022-07-29T00:15:08;4.30;;;2.30;;
37288;SDS011;23174;49.462;11.000;2022-07-29T00:17:09;2.95;;;2.22;;
37288;SDS011;23174;49.462;11.000;2022-07-29T00:19:09;2.33;;;2.00;;
37288;SDS011;23174;49.462;11.000;2022-07-29T00:21:10;3.42;;;2.30;;
37288;SDS011;23174;49.462;11.000;2022-07-29T00:23:10;3.10;;;2.58;;
37288;SDS011;23174;49.462;11.000;2022-07-29T00:25:11;3.50;;;2.17;;
37288;SDS011;23174;49.462;11.000;2022-07-29T00:27:12;4.55;;;2.08;;
37288;SDS011;23174;49.462;11.000;2022-07-29T00:29:13;5.07;;;2.25;;
37288;SDS011;23174;49.462;11.000;2022-07-29T00:31:14;5.28;;;1.98;;
37288;SDS011;23174;49.462;11.000;2022-07-29T00:33:15;4.13;;;2.33;;
37288;SDS011;23174;49.462;11.000;2022-07-29T00:35:15;5.70;;;2.42;;
37288;SDS011;23174;49.462;11.000;2022-07-29T00:37:34;3.58;;;2.15;;
37288;SDS011;23174;49.462;11.000;2022-07-29T00:39:35;2.20;;;1.90;;
37288;SDS011;23174;49.462;11.000;2022-07-29T00:41:35;3.42;;;2.17;;
37288;SDS011;23174;49.462;11.000;2022-07-29T00:43:36;7.45;;;2.20;;
37288;SDS011;23174;49.462;11.000;2022-07-29T00:45:37;2.75;;;2.30;;
37288;SDS011;23174;49.462;11.000;2022-07-29T00:47:37;3.03;;;1.90;;
37288;SDS011;23174;49.462;11.000;2022-07-29T00:49:39;4.45;;;2.50;;
37288;SDS011;23174;49.462;11.000;2022-07-29T00:51:40;3.72;;;2.45;;
37288;SDS011;23174;49.462;11.000;2022-07-29T00:53:41;4.88;;;2.00;;
37288;SDS011;23174;49.462;11.000;2022-07-29T00:55:42;6.00;;;2.40;;
37288;SDS011;23174;49.462;11.000;2022-07-29T00:57:43;7.82;;;3.70;;
37288;SDS011;23174;49.462;11.000;2022-07-29T00:59:44;4.65;;;2.08;;
37288;SDS011;23174;49.462;11.000;2022-07-29T01:01:45;3.78;;;2.33;;
37288;SDS011;23174;49.462;11.000;2022-07-29T01:03:45;3.72;;;2.30;;
37288;SDS011;23174;49.462;11.000;2022-07-29T01:05:46;3.72;;;2.53;;
37288;SDS011;23174;49.462;11.000;2022-07-29T01:07:48;3.38;;;2.53;;
37288;SDS011;23174;49.462;11.000;2022-07-29T01:09:50;3.13;;;1.92;;
37288;SDS011;23174;49.462;11.000;2022-07-29T01:11:53;3.67;;;2.05;;
37288;SDS011;23174;49.462;11.000;2022-07-29T01:13:54;3.65;;;1.90;;
37288;SDS011;23174;49.462;11.000;2022-07-29T01:15:59;2.58;;;1.65;;
37288;SDS011;23174;49.462;11.000;2022-07-29T01:18:21;5.35;;;2.03;;
37288;SDS011;23174;49.462;11.000;2022-07-29T01:20:31;2.28;;;2.00;;
37288;SDS011;23174;49.462;11.000;2022-07-29T01:30:22;4.97;;;2.40;;
37288;SDS011;23174;49.462;11.000;2022-07-29T01:32:26;3.15;;;1.98;;
37288;SDS011;23174;49.462;11.000;2022-07-29T01:34:31;2.88;;;2.22;;
37288;SDS011;23174;49.462;11.000;2022-07-29T01:36:47;9.23;;;2.20;;
37288;SDS011;23174;49.462;11.000;2022-07-29T01:39:14;2.70;;;1.75;;
37288;SDS011;23174;49.462;11.000;2022-07-29T01:41:17;3.70;;;2.25;;
37288;SDS011;23174;49.462;11.000;2022-07-29T01:43:21;6.35;;;2.60;;
37288;SDS011;23174;49.462;11.000;2022-07-29T01:45:48;3.85;;;2.30;;
37288;SDS011;23174;49.462;11.000;2022-07-29T01:50:23;2.10;;;1.90;;
37288;SDS011;23174;49.462;11.000;2022-07-29T01:52:33;2.60;;;2.40;;
37288;SDS011;23174;49.462;11.000;2022-07-29T01:54:45;2.60;;;2.25;;
37288;SDS011;23174;49.462;11.000;2022-07-29T01:56:55;3.38;;;2.15;;
37288;SDS011;23174;49.462;11.000;2022-07-29T01:58:56;3.67;;;2.08;;
37288;SDS011;23174;49.462;11.000;2022-07-29T02:00:58;2.40;;;2.00;;
37288;SDS011;23174;49.462;11.000;2022-07-29T02:03:02;2.15;;;1.77;;
37288;SDS011;23174;49.462;11.000;2022-07-29T02:05:07;3.85;;;2.40;;
37288;SDS011;23174;49.462;11.000;2022-07-29T02:07:11;2.28;;;1.83;;
37288;SDS011;23174;49.462;11.000;2022-07-29T02:09:15;2.45;;;1.90;;
37288;SDS011;23174;49.462;11.000;2022-07-29T02:11:17;5.28;;;2.05;;
37288;SDS011;23174;49.462;11.000;2022-07-29T02:13:18;2.35;;;2.15;;
37288;SDS011;23174;49.462;11.000;2022-07-29T02:15:20;3.13;;;2.03;;
37288;SDS011;23174;49.462;11.000;2022-07-29T02:17:31;4.60;;;1.95;;
37288;SDS011;23174;49.462;11.000;2022-07-29T02:19:35;4.70;;;2.10;;
37288;SDS011;23174;49.462;11.000;2022-07-29T02:21:37;3.83;;;2.03;;
37288;SDS011;23174;49.462;11.000;2022-07-29T02:23:40;5.82;;;2.47;;
37288;SDS011;23174;49.462;11.000;2022-07-29T02:25:41;4.22;;;1.90;;
37288;SDS011;23174;49.462;11.000;2022-07-29T02:27:42;2.35;;;1.83;;
37288;SDS011;23174;49.462;11.000;2022-07-29T02:29:45;3.92;;;2.42;;
37288;SDS011;23174;49.462;11.000;2022-07-29T02:31:47;2.70;;;1.92;;
37288;SDS011;23174;49.462;11.000;2022-07-29T02:33:49;4.05;;;1.65;;
37288;SDS011;23174;49.462;11.000;2022-07-29T02:35:50;2.60;;;1.92;;
37288;SDS011;23174;49.462;11.000;2022-07-29T02:37:52;7.88;;;2.13;;
37288;SDS011;23174;49.462;11.000;2022-07-29T02:40:12;6.60;;;1.98;;
37288;SDS011;23174;49.462;11.000;2022-07-29T02:42:15;2.30;;;1.73;;
37288;SDS011;23174;49.462;11.000;2022-07-29T02:44:21;2.65;;;1.60;;
37288;SDS011;23174;49.462;11.000;2022-07-29T02:46:26;4.10;;;1.50;;
37288;SDS011;23174;49.462;11.000;2022-07-29T02:48:38;2.40;;;2.20;;
37288;SDS011;23174;49.462;11.000;2022-07-29T02:50:44;3.80;;;1.65;;
37288;SDS011;23174;49.462;11.000;2022-07-29T02:52:52;6.97;;;1.65;;
37288;SDS011;23174;49.462;11.000;2022-07-29T02:54:58;9.32;;;2.05;;
37288;SDS011;23174;49.462;11.000;2022-07-29T02:57:03;3.10;;;1.65;;
37288;SDS011;23174;49.462;11.000;2022-07-29T03:01:23;4.63;;;2.55;;
37288;SDS011;23174;49.462;11.000;2022-07-29T03:03:25;4.97;;;1.70;;
37288;SDS011;23174;49.462;11.000;2022-07-29T03:05:30;3.38;;;1.92;;
37288;SDS011;23174;49.462;11.000;2022-07-29T03:07:32;5.68;;;1.60;;
37288;SDS011;23174;49.462;11.000;2022-07-29T03:09:34;2.15;;;1.80;;
37288;SDS011;23174;49.462;11.000;2022-07-29T03:11:36;3.55;;;1.90;;
37288;SDS011;23174;49.462;11.000;2022-07-29T03:13:38;2.58;;;1.75;;
37288;SDS011;23174;49.462;11.000;2022-07-29T03:15:39;5.75;;;1.98;;
37288;SDS011;23174;49.462;11.000;2022-07-29T03:17:43;5.43;;;1.90;;
37288;SDS011;23174;49.462;11.000;2022-07-29T03:19:44;4.32;;;1.77;;
37288;SDS011;23174;49.462;11.000;2022-07-29T03:21:45;4.43;;;1.65;;
37288;SDS011;23174;49.462;11.000;2022-07-29T03:23:46;4.45;;;1.70;;
37288;SDS011;23174;49.462;11.000;2022-07-29T03:25:46;3.20;;;2.03;;
37288;SDS011;23174;49.462;11.000;2022-07-29T03:27:48;5.10;;;1.88;;
37288;SDS011;23174;49.462;11.000;2022-07-29T03:29:48;6.53;;;1.88;;
37288;SDS011;23174;49.462;11.000;2022-07-29T03:31:49;4.90;;;1.80;;
37288;SDS011;23174;49.462;11.000;2022-07-29T03:33:50;3.78;;;1.77;;
37288;SDS011;23174;49.462;11.000;2022-07-29T03:35:50;10.32;;;2.03;;
37288;SDS011;23174;49.462;11.000;2022-07-29T03:37:51;4.07;;;1.85;;
37288;SDS011;23174;49.462;11.000;2022-07-29T03:39:52;3.88;;;1.85;;
37288;SDS011;23174;49.462;11.000;2022-07-29T03:41:55;4.38;;;1.63;;
37288;SDS011;23174;49.462;11.000;2022-07-29T03:43:58;3.65;;;2.40;;
37288;SDS011;23174;49.462;11.000;2022-07-29T03:45:59;3.63;;;2.20;;
37288;SDS011;23174;49.462;11.000;2022-07-29T03:48:07;3.20;;;2.22;;
37288;SDS011;23174;49.462;11.000;2022-07-29T03:50:10;7.63;;;1.90;;
37288;SDS011;23174;49.462;11.000;2022-07-29T03:52:13;3.72;;;1.80;;
37288;SDS011;23174;49.462;11.000;2022-07-29T03:54:13;2.63;;;1.52;;
37288;SDS011;23174;49.462;11.000;2022-07-29T03:56:15;3.25;;;1.73;;
37288;SDS011;23174;49.462;11.000;2022-07-29T03:58:19;2.80;;;1.85;;
37288;SDS011;23174;49.462;11.000;2022-07-29T04:00:21;7.53;;;2.10;;
37288;SDS011;23174;49.462;11.000;2022-07-29T04:02:24;2.70;;;1.80;;
37288;SDS011;23174;49.462;11.000;2022-07-29T04:04:25;1.27;;;0.90;;
37288;SDS011;23174;49.462;11.000;2022-07-29T04:06:26;1.10;;;1.00;;
37288;SDS011;23174;49.462;11.000;2022-07-29T04:08:26;5.90;;;1.10;;
37288;SDS011;23174;49.462;11.000;2022-07-29T04:10:27;0.90;;;0.90;;
37288;SDS011;23174;49.462;11.000;2022-07-29T04:12:28;3.85;;;1.23;;
37288;SDS011;23174;49.462;11.000;2022-07-29T04:14:29;1.55;;;1.17;;
37288;SDS011;23174;49.462;11.000;2022-07-29T04:16:31;7.53;;;1.20;;
37288;SDS011;23174;49.462;11.000;2022-07-29T04:18:32;1.33;;;1.23;;
37288;SDS011;23174;49.462;11.000;2022-07-29T04:20:33;2.85;;;0.80;;
37288;SDS011;23174;49.462;11.000;2022-07-29T04:22:33;1.10;;;0.73;;
37288;SDS011;23174;49.462;11.000;2022-07-29T04:24:34;1.27;;;1.17;;
37288;SDS011;23174;49.462;11.000;2022-07-29T04:26:34;1.15;;;1.02;;
37288;SDS011;23174;49.462;11.000;2022-07-29T04:28:35;2.72;;;1.05;;
37288;SDS011;23174;49.462;11.000;2022-07-29T04:30:36;1.67;;;0.93;;
37288;SDS011;23174;49.462;11.000;2022-07-29T04:32:37;0.40;;;0.40;;
37288;SDS011;23174;49.462;11.000;2022-07-29T04:34:38;1.00;;;1.00;;
37288;SDS011;23174;49.462;11.000;2022-07-29T04:36:38;1.45;;;1.35;;
37288;SDS011;23174;49.462;11.000;2022-07-29T04:38:39;1.02;;;1.02;;
37288;SDS011;23174;49.462;11.000;2022-07-29T04:40:40;1.77;;;1.15;;
37288;SDS011;23174;49.462;11.000;2022-07-29T04:42:40;1.58;;;1.30;;
37288;SDS011;23174;49.462;11.000;2022-07-29T04:44:41;1.10;;;0.88;;
37288;SDS011;23174;49.462;11.000;2022-07-29T04:46:41;2.85;;;1.17;;
37288;SDS011;23174;49.462;11.000;2022-07-29T04:48:42;4.35;;;0.90;;
37288;SDS011;23174;49.462;11.000;2022-07-29T04:50:44;1.13;;;0.98;;
37288;SDS011;23174;49.462;11.000;2022-07-29T04:52:45;2.10;;;1.00;;
37288;SDS011;23174;49.462;11.000;2022-07-29T04:54:46;2.08;;;1.25;;
37288;SDS011;23174;49.462;11.000;2022-07-29T04:56:46;0.80;;;0.80;;
37288;SDS011;23174;49.462;11.000;2022-07-29T04:58:47;2.05;;;1.20;;
37288;SDS011;23174;49.462;11.000;2022-07-29T05:00:47;1.33;;;1.23;;
37288;SDS011;23174;49.462;11.000;2022-07-29T05:02:48;1.70;;;1.60;;
37288;SDS011;23174;49.462;11.000;2022-07-29T05:04:49;2.65;;;1.50;;
37288;SDS011;23174;49.462;11.000;2022-07-29T05:06:50;1.83;;;1.40;;
37288;SDS011;23174;49.462;11.000;2022-07-29T05:08:50;2.83;;;1.88;;
37288;SDS011;23174;49.462;11.000;2022-07-29T05:10:51;3.95;;;2.03;;
37288;SDS011;23174;49.462;11.000;2022-07-29T05:12:51;0.90;;;0.90;;
37288;SDS011;23174;49.462;11.000;2022-07-29T05:14:52;3.67;;;1.98;;
37288;SDS011;23174;49.462;11.000;2022-07-29T05:16:52;6.28;;;2.35;;
37288;SDS011;23174;49.462;11.000;2022-07-29T05:18:56;6.07;;;2.30;;
37288;SDS011;23174;49.462;11.000;2022-07-29T05:20:57;5.03;;;1.52;;
37288;SDS011;23174;49.462;11.000;2022-07-29T05:22:58;2.30;;;0.93;;
37288;SDS011;23174;49.462;11.000;2022-07-29T05:24:59;2.25;;;1.92;;
37288;SDS011;23174;49.462;11.000;2022-07-29T05:26:59;1.17;;;1.08;;
37288;SDS011;23174;49.462;11.000;2022-07-29T05:29:00;2.47;;;1.42;;
37288;SDS011;23174;49.462;11.000;2022-07-29T05:31:01;5.57;;;1.55;;
37288;SDS011;23174;49.462;11.000;2022-07-29T05:33:01;2.97;;;1.35;;
37288;SDS011;23174;49.462;11.000;2022-07-29T05:35:02;1.10;;;1.10;;
37288;SDS011;23174;49.462;11.000;2022-07-29T05:37:03;4.25;;;0.85;;
37288;SDS011;23174;49.462;11.000;2022-07-29T05:39:03;1.60;;;1.08;;
37288;SDS011;23174;49.462;11.000;2022-07-29T05:41:04;0.90;;;0.88;;
37288;SDS011;23174;49.462;11.000;2022-07-29T05:43:05;3.22;;;1.98;;
37288;SDS011;23174;49.462;11.000;2022-07-29T05:45:06;5.18;;;1.80;;
37288;SDS011;23174;49.462;11.000;2022-07-29T05:47:06;1.25;;;1.13;;
37288;SDS011;23174;49.462;11.000;2022-07-29T05:49:07;2.67;;;1.35;;
37288;SDS011;23174;49.462;11.000;2022-07-29T05:51:08;1.63;;;1.27;;
37288;SDS011;23174;49.462;11.000;2022-07-29T05:53:08;2.63;;;1.58;;
37288;SDS011;23174;49.462;11.000;2022-07-29T05:55:09;2.22;;;1.52;;
37288;SDS011;23174;49.462;11.000;2022-07-29T05:57:16;1.15;;;0.95;;
37288;SDS011;23174;49.462;11.000;2022-07-29T05:59:20;2.42;;;1.65;;
37288;SDS011;23174;49.462;11.000;2022-07-29T06:01:21;1.50;;;1.13;;
37288;SDS011;23174;49.462;11.000;2022-07-29T06:03:22;1.40;;;1.30;;
37288;SDS011;23174;49.462;11.000;2022-07-29T06:05:22;2.38;;;1.20;;
37288;SDS011;23174;49.462;11.000;2022-07-29T06:07:23;0.65;;;0.65;;
37288;SDS011;23174;49.462;11.000;2022-07-29T06:09:24;3.88;;;1.50;;
37288;SDS011;23174;49.462;11.000;2022-07-29T06:11:25;0.88;;;0.70;;
37288;SDS011;23174;49.462;11.000;2022-07-29T06:13:26;2.35;;;1.48;;
37288;SDS011;23174;49.462;11.000;2022-07-29T06:15:27;0.45;;;0.45;;
37288;SDS011;23174;49.462;11.000;2022-07-29T06:17:28;1.80;;;1.65;;
37288;SDS011;23174;49.462;11.000;2022-07-29T06:19:31;2.03;;;1.45;;
37288;SDS011;23174;49.462;11.000;2022-07-29T06:21:34;2.17;;;1.08;;
37288;SDS011;23174;49.462;11.000;2022-07-29T06:23:38;2.63;;;1.25;;
37288;SDS011;23174;49.462;11.000;2022-07-29T06:25:40;2.65;;;1.05;;
37288;SDS011;23174;49.462;11.000;2022-07-29T06:27:40;0.70;;;0.70;;
37288;SDS011;23174;49.462;11.000;2022-07-29T06:29:41;1.50;;;1.17;;
37288;SDS011;23174;49.462;11.000;2022-07-29T06:31:42;4.82;;;1.75;;
37288;SDS011;23174;49.462;11.000;2022-07-29T06:33:42;1.50;;;1.40;;
37288;SDS011;23174;49.462;11.000;2022-07-29T06:35:43;8.52;;;2.17;;
37288;SDS011;23174;49.462;11.000;2022-07-29T06:37:44;0.77;;;0.77;;
37288;SDS011;23174;49.462;11.000;2022-07-29T06:39:45;1.90;;;1.60;;
37288;SDS011;23174;49.462;11.000;2022-07-29T06:41:46;4.50;;;1.80;;
37288;SDS011;23174;49.462;11.000;2022-07-29T06:43:48;1.65;;;1.55;;
37288;SDS011;23174;49.462;11.000;2022-07-29T06:45:51;1.08;;;1.08;;
37288;SDS011;23174;49.462;11.000;2022-07-29T06:47:51;1.20;;;1.10;;
37288;SDS011;23174;49.462;11.000;2022-07-29T06:49:52;1.30;;;1.20;;
37288;SDS011;23174;49.462;11.000;2022-07-29T06:51:53;0.55;;;0.55;;
37288;SDS011;23174;49.462;11.000;2022-07-29T06:53:54;2.85;;;1.55;;
37288;SDS011;23174;49.462;11.000;2022-07-29T06:55:57;1.73;;;1.45;;
37288;SDS011;23174;49.462;11.000;2022-07-29T06:57:59;3.35;;;1.67;;
37288;SDS011;23174;49.462;11.000;2022-07-29T07:00:00;0.40;;;0.40;;
37288;SDS011;23174;49.462;11.000;2022-07-29T07:02:00;7.47;;;1.65;;
37288;SDS011;23174;49.462;11.000;2022-07-29T07:04:01;2.35;;;1.63;;
37288;SDS011;23174;49.462;11.000;2022-07-29T07:06:02;1.55;;;1.40;;
37288;SDS011;23174;49.462;11.000;2022-07-29T07:08:03;1.15;;;1.05;;
37288;SDS011;23174;49.462;11.000;2022-07-29T07:10:04;1.63;;;1.20;;
37288;SDS011;23174;49.462;11.000;2022-07-29T07:12:05;1.40;;;1.30;;
37288;SDS011;23174;49.462;11.000;2022-07-29T07:14:06;0.90;;;0.77;;
37288;SDS011;23174;49.462;11.000;2022-07-29T07:16:06;1.33;;;1.20;;
37288;SDS011;23174;49.462;11.000;2022-07-29T07:18:07;2.83;;;1.02;;
37288;SDS011;23174;49.462;11.000;2022-07-29T07:20:07;0.52;;;0.52;;
37288;SDS011;23174;49.462;11.000;2022-07-29T07:22:08;1.90;;;1.25;;
37288;SDS011;23174;49.462;11.000;2022-07-29T07:24:09;2.33;;;1.30;;
37288;SDS011;23174;49.462;11.000;2022-07-29T07:26:09;0.93;;;0.85;;
37288;SDS011;23174;49.462;11.000;2022-07-29T07:28:10;2.03;;;0.85;;
37288;SDS011;23174;49.462;11.000;2022-07-29T07:30:11;5.55;;;2.20;;
37288;SDS011;23174;49.462;11.000;2022-07-29T07:32:12;1.65;;;1.17;;
37288;SDS011;23174;49.462;11.000;2022-07-29T07:34:14;1.17;;;1.13;;
37288;SDS011;23174;49.462;11.000;2022-07-29T07:36:15;3.70;;;2.08;;
37288;SDS011;23174;49.462;11.000;2022-07-29T07:38:15;7.78;;;2.10;;
37288;SDS011;23174;49.462;11.000;2022-07-29T07:40:16;5.50;;;2.22;;
37288;SDS011;23174;49.462;11.000;2022-07-29T07:42:16;4.50;;;2.22;;
37288;SDS011;23174;49.462;11.000;2022-07-29T07:44:17;1.85;;;1.73;;
37288;SDS011;23174;49.462;11.000;2022-07-29T07:46:18;4.55;;;2.00;;
37288;SDS011;23174;49.462;11.000;2022-07-29T07:48:18;3.83;;;2.72;;
37288;SDS011;23174;49.462;11.000;2022-07-29T07:50:19;5.18;;;2.10;;
37288;SDS011;23174;49.462;11.000;2022-07-29T07:52:20;5.80;;;2.17;;
37288;SDS011;23174;49.462;11.000;2022-07-29T07:54:21;0.70;;;0.70;;
37288;SDS011;23174;49.462;11.000;2022-07-29T07:56:22;1.80;;;1.67;;
37288;SDS011;23174;49.462;11.000;2022-07-29T07:58:22;6.07;;;3.10;;
37288;SDS011;23174;49.462;11.000;2022-07-29T08:00:23;10.93;;;2.72;;
37288;SDS011;23174;49.462;11.000;2022-07-29T08:02:24;5.82;;;2.40;;
37288;SDS011;23174;49.462;11.000;2022-07-29T08:04:24;3.22;;;2.30;;
37288;SDS011;23174;49.462;11.000;2022-07-29T08:06:27;18.67;;;3.50;;
37288;SDS011;23174;49.462;11.000;2022-07-29T08:08:28;4.47;;;2.33;;
37288;SDS011;23174;49.462;11.000;2022-07-29T08:10:29;4.18;;;2.28;;
37288;SDS011;23174;49.462;11.000;2022-07-29T08:12:52;4.60;;;1.67;;
37288;SDS011;23174;49.462;11.000;2022-07-29T08:14:53;3.10;;;2.65;;
37288;SDS011;23174;49.462;11.000;2022-07-29T08:16:54;3.55;;;2.40;;
37288;SDS011;23174;49.462;11.000;2022-07-29T08:18:54;5.22;;;2.28;;
37288;SDS011;23174;49.462;11.000;2022-07-29T08:20:57;3.15;;;2.30;;
37288;SDS011;23174;49.462;11.000;2022-07-29T08:22:58;5.38;;;2.60;;
37288;SDS011;23174;49.462;11.000;2022-07-29T08:24:59;3.05;;;2.33;;
37288;SDS011;23174;49.462;11.000;2022-07-29T08:26:59;10.27;;;4.13;;
37288;SDS011;23174;49.462;11.000;2022-07-29T08:29:00;5.07;;;2.78;;
37288;SDS011;23174;49.462;11.000;2022-07-29T08:31:00;3.53;;;2.53;;
37288;SDS011;23174;49.462;11.000;2022-07-29T08:33:01;8.20;;;2.67;;
37288;SDS011;23174;49.462;11.000;2022-07-29T08:35:02;3.38;;;2.80;;
37288;SDS011;23174;49.462;11.000;2022-07-29T08:37:03;2.28;;;2.08;;
37288;SDS011;23174;49.462;11.000;2022-07-29T08:39:03;3.33;;;2.00;;
37288;SDS011;23174;49.462;11.000;2022-07-29T08:41:04;4.35;;;3.13;;
37288;SDS011;23174;49.462;11.000;2022-07-29T08:43:06;5.15;;;2.58;;
37288;SDS011;23174;49.462;11.000;2022-07-29T08:45:08;4.00;;;2.70;;
37288;SDS011;23174;49.462;11.000;2022-07-29T08:47:09;10.13;;;2.97;;
37288;SDS011;23174;49.462;11.000;2022-07-29T08:49:13;7.28;;;2.60;;
37288;SDS011;23174;49.462;11.000;2022-07-29T08:51:15;2.45;;;2.25;;
37288;SDS011;23174;49.462;11.000;2022-07-29T08:53:17;5.07;;;2.10;;
37288;SDS011;23174;49.462;11.000;2022-07-29T08:55:18;4.60;;;2.78;;
37288;SDS011;23174;49.462;11.000;2022-07-29T08:57:20;5.93;;;3.08;;
37288;SDS011;23174;49.462;11.000;2022-07-29T08:59:22;2.35;;;2.10;;
37288;SDS011;23174;49.462;11.000;2022-07-29T09:01:25;4.57;;;2.20;;
37288;SDS011;23174;49.462;11.000;2022-07-29T09:03:30;3.00;;;2.30;;
37288;SDS011;23174;49.462;11.000;2022-07-29T09:05:31;2.63;;;2.42;;
37288;SDS011;23174;49.462;11.000;2022-07-29T09:07:32;3.97;;;2.13;;
37288;SDS011;23174;49.462;11.000;2022-07-29T09:09:34;2.13;;;1.95;;
37288;SDS011;23174;49.462;11.000;2022-07-29T09:11:34;4.13;;;3.00;;
37288;SDS011;23174;49.462;11.000;2022-07-29T09:13:35;10.32;;;3.03;;
37288;SDS011;23174;49.462;11.000;2022-07-29T09:15:36;4.30;;;2.92;;
37288;SDS011;23174;49.462;11.000;2022-07-29T09:17:46;4.93;;;3.10;;
37288;SDS011;23174;49.462;11.000;2022-07-29T09:19:49;11.27;;;3.25;;
37288;SDS011;23174;49.462;11.000;2022-07-29T09:21:51;3.42;;;2.30;;
37288;SDS011;23174;49.462;11.000;2022-07-29T09:24:01;4.85;;;2.60;;
37288;SDS011;23174;49.462;11.000;2022-07-29T09:26:09;6.43;;;3.00;;
37288;SDS011;23174;49.462;11.000;2022-07-29T09:28:12;3.65;;;2.50;;
37288;SDS011;23174;49.462;11.000;2022-07-29T09:30:14;4.60;;;2.85;;
37288;SDS011;23174;49.462;11.000;2022-07-29T09:32:14;5.05;;;2.40;;
37288;SDS011;23174;49.462;11.000;2022-07-29T09:34:16;3.53;;;2.67;;
37288;SDS011;23174;49.462;11.000;2022-07-29T09:36:21;4.10;;;2.63;;
37288;SDS011;23174;49.462;11.000;2022-07-29T09:38:22;6.53;;;2.38;;
37288;SDS011;23174;49.462;11.000;2022-07-29T09:40:25;4.20;;;2.83;;
37288;SDS011;23174;49.462;11.000;2022-07-29T09:42:28;7.40;;;2.55;;
37288;SDS011;23174;49.462;11.000;2022-07-29T09:49:07;7.60;;;3.00;;
37288;SDS011;23174;49.462;11.000;2022-07-29T09:51:18;9.48;;;2.95;;
37288;SDS011;23174;49.462;11.000;2022-07-29T09:53:36;5.38;;;2.60;;
37288;SDS011;23174;49.462;11.000;2022-07-29T09:55:47;2.88;;;2.55;;
37288;SDS011;23174;49.462;11.000;2022-07-29T09:57:51;3.67;;;2.88;;
37288;SDS011;23174;49.462;11.000;2022-07-29T10:00:15;7.22;;;2.90;;
37288;SDS011;23174;49.462;11.000;2022-07-29T10:02:17;3.25;;;2.95;;
37288;SDS011;23174;49.462;11.000;2022-07-29T10:04:19;4.13;;;3.22;;
37288;SDS011;23174;49.462;11.000;2022-07-29T10:06:20;4.25;;;3.10;;
37288;SDS011;23174;49.462;11.000;2022-07-29T10:08:24;4.82;;;2.80;;
37288;SDS011;23174;49.462;11.000;2022-07-29T10:10:27;4.93;;;2.80;;
37288;SDS011;23174;49.462;11.000;2022-07-29T10:12:33;3.78;;;2.60;;
37288;SDS011;23174;49.462;11.000;2022-07-29T10:14:47;4.50;;;2.80;;
37288;SDS011;23174;49.462;11.000;2022-07-29T10:16:49;2.70;;;2.50;;
37288;SDS011;23174;49.462;11.000;2022-07-29T10:18:50;2.90;;;2.70;;
37288;SDS011;23174;49.462;11.000;2022-07-29T10:20:51;4.30;;;2.80;;
37288;SDS011;23174;49.462;11.000;2022-07-29T10:22:53;6.65;;;3.47;;
37288;SDS011;23174;49.462;11.000;2022-07-29T10:24:54;5.18;;;2.60;;
37288;SDS011;23174;49.462;11.000;2022-07-29T10:26:55;5.35;;;2.85;;
37288;SDS011;23174;49.462;11.000;2022-07-29T10:28:58;5.75;;;3.00;;
37288;SDS011;23174;49.462;11.000;2022-07-29T10:31:00;2.92;;;2.50;;
37288;SDS011;23174;49.462;11.000;2022-07-29T10:37:58;3.28;;;2.88;;
37288;SDS011;23174;49.462;11.000;2022-07-29T10:40:22;3.17;;;2.50;;
37288;SDS011;23174;49.462;11.000;2022-07-29T10:42:51;3.55;;;2.13;;
37288;SDS011;23174;49.462;11.000;2022-07-29T10:44:53;2.80;;;2.60;;
37288;SDS011;23174;49.462;11.000;2022-07-29T10:46:54;7.80;;;2.67;;
37288;SDS011;23174;49.462;11.000;2022-07-29T10:51:17;2.42;;;2.22;;
37288;SDS011;23174;49.462;11.000;2022-07-29T10:53:18;4.38;;;2.65;;
37288;SDS011;23174;49.462;11.000;2022-07-29T10:57:38;10.23;;;3.05;;
37288;SDS011;23174;49.462;11.000;2022-07-29T10:59:40;4.05;;;3.35;;
37288;SDS011;23174;49.462;11.000;2022-07-29T11:01:41;15.45;;;2.92;;
37288;SDS011;23174;49.462;11.000;2022-07-29T11:03:43;2.95;;;2.53;;
37288;SDS011;23174;49.462;11.000;2022-07-29T11:05:51;3.35;;;2.55;;
37288;SDS011;23174;49.462;11.000;2022-07-29T11:17:04;5.07;;;2.85;;
37288;SDS011;23174;49.462;11.000;2022-07-29T11:21:34;4.15;;;2.78;;
37288;SDS011;23174;49.462;11.000;2022-07-29T11:23:37;8.50;;;2.80;;
37288;SDS011;23174;49.462;11.000;2022-07-29T11:25:42;3.22;;;2.55;;
37288;SDS011;23174;49.462;11.000;2022-07-29T11:27:44;3.22;;;2.60;;
37288;SDS011;23174;49.462;11.000;2022-07-29T11:29:48;2.92;;;2.50;;
37288;SDS011;23174;49.462;11.000;2022-07-29T11:31:54;6.35;;;2.50;;
37288;SDS011;23174;49.462;11.000;2022-07-29T11:34:45;3.95;;;2.85;;
37288;SDS011;23174;49.462;11.000;2022-07-29T11:37:12;2.60;;;2.38;;
37288;SDS011;23174;49.462;11.000;2022-07-29T11:39:25;4.28;;;3.00;;
37288;SDS011;23174;49.462;11.000;2022-07-29T11:41:26;5.53;;;2.40;;
37288;SDS011;23174;49.462;11.000;2022-07-29T11:45:48;3.40;;;2.95;;
37288;SDS011;23174;49.462;11.000;2022-07-29T11:47:49;4.53;;;2.60;;
37288;SDS011;23174;49.462;11.000;2022-07-29T11:49:52;3.40;;;3.10;;
37288;SDS011;23174;49.462;11.000;2022-07-29T11:51:56;6.10;;;2.90;;
37288;SDS011;23174;49.462;11.000;2022-07-29T11:53:57;4.43;;;2.75;;
37288;SDS011;23174;49.462;11.000;2022-07-29T11:55:59;5.50;;;3.20;;
37288;SDS011;23174;49.462;11.000;2022-07-29T11:58:00;3.80;;;2.88;;
37288;SDS011;23174;49.462;11.000;2022-07-29T12:00:03;4.72;;;2.80;;
37288;SDS011;23174;49.462;11.000;2022-07-29T12:02:10;4.25;;;2.70;;
37288;SDS011;23174;49.462;11.000;2022-07-29T12:04:12;3.08;;;2.88;;
37288;SDS011;23174;49.462;11.000;2022-07-29T12:06:13;3.15;;;2.80;;
37288;SDS011;23174;49.462;11.000;2022-07-29T12:08:15;3.97;;;2.97;;
37288;SDS011;23174;49.462;11.000;2022-07-29T12:10:19;4.15;;;3.17;;
37288;SDS011;23174;49.462;11.000;2022-07-29T12:12:20;4.25;;;3.20;;
37288;SDS011;23174;49.462;11.000;2022-07-29T12:14:25;8.85;;;3.13;;
37288;SDS011;23174;49.462;11.000;2022-07-29T12:16:35;3.53;;;2.65;;
37288;SDS011;23174;49.462;11.000;2022-07-29T12:18:37;3.13;;;2.83;;
37288;SDS011;23174;49.462;11.000;2022-07-29T12:20:37;3.33;;;2.70;;
37288;SDS011;23174;49.462;11.000;2022-07-29T12:22:39;3.20;;;2.90;;
37288;SDS011;23174;49.462;11.000;2022-07-29T12:24:44;5.47;;;3.10;;
37288;SDS011;23174;49.462;11.000;2022-07-29T12:26:51;9.43;;;3.28;;
37288;SDS011;23174;49.462;11.000;2022-07-29T12:28:59;3.17;;;2.97;;
37288;SDS011;23174;49.462;11.000;2022-07-29T12:31:00;3.90;;;3.17;;
37288;SDS011;23174;49.462;11.000;2022-07-29T12:33:01;5.22;;;3.13;;
37288;SDS011;23174;49.462;11.000;2022-07-29T12:35:05;4.65;;;3.03;;
37288;SDS011;23174;49.462;11.000;2022-07-29T12:37:08;7.45;;;2.88;;
37288;SDS011;23174;49.462;11.000;2022-07-29T12:39:10;3.53;;;2.65;;
37288;SDS011;23174;49.462;11.000;2022-07-29T12:41:11;6.45;;;2.97;;
37288;SDS011;23174;49.462;11.000;2022-07-29T12:43:14;3.13;;;2.90;;
37288;SDS011;23174;49.462;11.000;2022-07-29T12:45:16;3.42;;;2.85;;
37288;SDS011;23174;49.462;11.000;2022-07-29T12:47:17;6.10;;;2.83;;
37288;SDS011;23174;49.462;11.000;2022-07-29T12:49:22;4.03;;;2.92;;